Accueil
METAR-TAF:

METAR-TAF

Aéroports :

Farnborough, Angleterre

latitude: 51-17N, longitude: 000-46W, altitude: 65 m

Observation

Le bulletin a été fait il y a 40 minutes, à 10:50 UTC
Vent 7 kt de sud-est
Température 2°C
Humidité 80%
Pression 1017 hPa
Visibilité 10 km ou plus
Quelques nuages à une hauteur de 3400 ft

METAR: EGLF 181050Z 14007KT 9999 FEW034 02/M01 Q1017

Heure: 11:30 (11:30 UTC)

Prévision

Le bulletin a été fait il y a 3 heures et 30 minutes, à 08:00 UTC
Prévision valable du 18 à 09 UTC au 18 à 18 UTC
Vent 3 kt de direction variable
Visibilité 10 km ou plus
Quelques nuages à une hauteur de 3500 ft
Evoluant progressivement
du 18 à 10 UTC au 18 à 12 UTC
Vent 10 kt de sud/sud-est

TAF: EGLF 180800Z 1809/1818 VRB03KT 9999 FEW035 BECMG 1810/1812 16010KT

Observations et prévisions météorologiques de plus de 4000 aéroports (messages METAR et TAF).

Les stations disponibles sont représentées par des disques jaunes et rouges sur la carte.

Passer la souris dessus pour voir le nom de la station.

Cliquer dessus pour voir les observations et prévisions météorologiques.

Pour changer de carte: cliquez sur les boutons verts avec une croix noire pour zoomer, sur le bouton vert avec un tiret pour effectuer un zoom arrière, ou sur les flèches vertes pour les cartes adjacentes.


METAR-TAF: